Arch, NM

5:45 AM MST on March 02, 2015 (GMT -0700)
S of ENMU | Change Station
CLOSE
Current Station
Personal Weather Station
Location: Portales, NM
Elevation: 4078 ft
Nearby Weather Stations

Elev 4078 ft 34.17 °N, 103.35 °W | Updated 15 seconds ago

Fog
Fog
32.4 °F
Feels Like 27 °F
N
5.4
Wind Variable Wind from East
Gusts 9.2 mph

Today
High -- | Low -- °F
--% Chance of Precip.
Yesterday
High -- | Low -- °F
Precip. -- in
6:21 AM 5:50 PM
Waxing Gibbous, 91% visible
Pressure 30.24 in
Visibility 0.2 miles
Clouds Overcast 200 ft
Windchill 27 °F
Dew Point 28 °F
Humidity 84%
Rainfall 0.00 in
Snow Depth Not available.
UV 0 out of 12
Pollen 6.60 out of 12
Air Quality Not available.
Flu Activity Not available.
SPECI KCVS 021242Z 16009KT 1/4SM BR OVC002 M02/M03 A3024 RMK FZDZE27

More Conditions Fewer Conditions

Pressure 30.24 in
Visibility 0.2 miles
Clouds Overcast 200 ft
Windchill 27 °F
Dew Point 28 °F
Humidity 84%
Rainfall 0.00 in
Snow Depth Not available.
UV 0 out of 12
Pollen 6.60 out of 12
Air Quality Not available.
Flu Activity Not available.
SPECI KCVS 021242Z 16009KT 1/4SM BR OVC002 M02/M03 A3024 RMK FZDZE27

More Conditions Fewer Conditions

10-Day Weather Forecast

Almanac

Astronomy

Mar. 02, 2015 Rise Set
Actual Time
Civil Twilight
Nautical Twilight
Astronomical Twilight
Moon
Length of Visible Light
Length of Day
Tomorrow will be .
, % of the Moon is Illuminated

Today's Extremes

State Highs State Lows

Community

WunderPhotos

Upload Photos

1,801,772 photos uploaded!

WunderBlogs® & News

Nearby

Air Quality

  Air Quality AQ Index Pollutant
Not available.

Snow Depth

Station Depth Elevation

Earthquake Activity

City Distance Mag. Time & Date
Minimum magnitude displayed is 2.5.

Coastal Water Temperatures

Place Temperature

Nearby Weather Stations